XBFGP MMQT-MMMM
Flight info
| Callsign | XBFGP |
|---|---|
| Flight time | 0h 16m |
| Altitude | 14500 |
| Route | MMQT DCT MMMM |
| Aircraft | TBM9/L-V/N |
Departure
| Time | 2026-05-06 17:04 |
|---|---|
| Airport | Querétaro Intercontinental Airport (MMQT) |
Arrival
| Time | 2026-05-06 17:20 |
|---|---|
| Airport | General Francisco J. Mujica International Airport (MMMM) |
| Time | Latitude | Longitude | Altitude | Speed | Heading |
|---|---|---|---|---|---|
| 2026-05-06 16:59 | 20.62205 | -100.19040 | 6300 ft | 0 kts | 194° |
| 2026-05-06 17:01 | 20.62202 | -100.19041 | 6300 ft | 7 kts | 192° |
| 2026-05-06 17:02 | 20.62123 | -100.18864 | 6300 ft | 50 kts | 100° |
| 2026-05-06 17:02 | 20.62021 | -100.18685 | 6300 ft | 18 kts | 201° |
| 2026-05-06 17:02 | 20.61917 | -100.18628 | 6300 ft | 28 kts | 108° |
| 2026-05-06 17:02 | 20.61835 | -100.18429 | 6300 ft | 25 kts | 230° |
| 2026-05-06 17:03 | 20.61758 | -100.18669 | 6300 ft | 52 kts | 283° |
| 2026-05-06 17:03 | 20.61850 | -100.19177 | 6300 ft | 85 kts | 283° |
| 2026-05-06 17:03 | 20.61957 | -100.19815 | 6455 ft | 88 kts | 281° |
| 2026-05-06 17:03 | 20.61911 | -100.20541 | 6484 ft | 111 kts | 237° |
| 2026-05-06 17:04 | 20.61125 | -100.20826 | 6944 ft | 132 kts | 178° |
| 2026-05-06 17:04 | 20.60207 | -100.20843 | 7598 ft | 133 kts | 195° |
| 2026-05-06 17:04 | 20.59381 | -100.21257 | 7980 ft | 133 kts | 223° |
| 2026-05-06 17:04 | 20.58667 | -100.21994 | 8439 ft | 156 kts | 226° |
| 2026-05-06 17:05 | 20.57871 | -100.22842 | 8841 ft | 172 kts | 230° |
| 2026-05-06 17:05 | 20.56996 | -100.23805 | 9250 ft | 190 kts | 227° |
| 2026-05-06 17:05 | 20.56037 | -100.24846 | 9644 ft | 203 kts | 228° |
| 2026-05-06 17:05 | 20.55045 | -100.25974 | 10036 ft | 214 kts | 229° |
| 2026-05-06 17:06 | 20.54001 | -100.27124 | 10381 ft | 223 kts | 228° |
| 2026-05-06 17:06 | 20.52904 | -100.28327 | 10707 ft | 227 kts | 227° |
| 2026-05-06 17:06 | 20.51785 | -100.29546 | 11040 ft | 231 kts | 227° |
| 2026-05-06 17:06 | 20.50663 | -100.30791 | 11374 ft | 234 kts | 226° |
| 2026-05-06 17:07 | 20.49512 | -100.32051 | 11692 ft | 239 kts | 225° |
| 2026-05-06 17:07 | 20.48353 | -100.33321 | 12039 ft | 239 kts | 225° |
| 2026-05-06 17:07 | 20.47182 | -100.34611 | 12379 ft | 244 kts | 224° |
| 2026-05-06 17:07 | 20.45995 | -100.35919 | 12713 ft | 246 kts | 223° |
| 2026-05-06 17:08 | 20.44793 | -100.37236 | 13061 ft | 249 kts | 223° |
| 2026-05-06 17:08 | 20.43582 | -100.38565 | 13412 ft | 251 kts | 223° |
| 2026-05-06 17:08 | 20.42361 | -100.39907 | 13764 ft | 252 kts | 223° |
| 2026-05-06 17:08 | 20.41136 | -100.41251 | 14091 ft | 253 kts | 223° |
| 2026-05-06 17:09 | 20.39894 | -100.42612 | 14222 ft | 262 kts | 223° |
| 2026-05-06 17:09 | 20.38594 | -100.44042 | 14204 ft | 275 kts | 223° |
| 2026-05-06 17:09 | 20.37247 | -100.45528 | 14190 ft | 283 kts | 223° |
| 2026-05-06 17:09 | 20.35880 | -100.47035 | 14187 ft | 289 kts | 223° |
| 2026-05-06 17:10 | 20.34468 | -100.48582 | 14176 ft | 292 kts | 223° |
| 2026-05-06 17:10 | 20.33044 | -100.50141 | 14172 ft | 295 kts | 223° |
| 2026-05-06 17:10 | 20.31608 | -100.51710 | 14177 ft | 296 kts | 224° |
| 2026-05-06 17:10 | 20.30167 | -100.53288 | 14175 ft | 297 kts | 224° |
| 2026-05-06 17:11 | 20.28721 | -100.54870 | 14171 ft | 297 kts | 223° |
| 2026-05-06 17:11 | 20.27279 | -100.56453 | 14166 ft | 298 kts | 223° |
| 2026-05-06 17:11 | 20.25827 | -100.58033 | 14173 ft | 299 kts | 224° |
| 2026-05-06 17:11 | 20.24383 | -100.59629 | 14165 ft | 299 kts | 224° |
| 2026-05-06 17:12 | 20.22933 | -100.61216 | 14165 ft | 299 kts | 224° |
| 2026-05-06 17:12 | 20.21484 | -100.62801 | 14169 ft | 298 kts | 223° |
| 2026-05-06 17:12 | 20.20057 | -100.64356 | 14208 ft | 298 kts | 223° |
| 2026-05-06 17:12 | 20.18604 | -100.65931 | 14206 ft | 299 kts | 223° |
| 2026-05-06 17:13 | 20.17161 | -100.67517 | 14203 ft | 297 kts | 224° |
| 2026-05-06 17:13 | 20.15721 | -100.69091 | 14200 ft | 297 kts | 223° |
| 2026-05-06 17:13 | 20.14274 | -100.70666 | 14202 ft | 297 kts | 224° |
| 2026-05-06 17:13 | 20.12836 | -100.72239 | 14201 ft | 296 kts | 224° |
| 2026-05-06 17:14 | 20.11394 | -100.73816 | 14021 ft | 302 kts | 224° |
| 2026-05-06 17:14 | 20.09902 | -100.75457 | 13554 ft | 313 kts | 224° |
| 2026-05-06 17:14 | 20.08368 | -100.77137 | 13082 ft | 319 kts | 224° |
| 2026-05-06 17:14 | 20.06807 | -100.78826 | 12617 ft | 321 kts | 224° |
| 2026-05-06 17:15 | 20.05241 | -100.80531 | 12160 ft | 322 kts | 225° |
| 2026-05-06 17:15 | 20.03681 | -100.82234 | 11711 ft | 321 kts | 225° |
| 2026-05-06 17:15 | 20.02126 | -100.83930 | 11264 ft | 319 kts | 225° |
| 2026-05-06 17:15 | 20.00579 | -100.85615 | 10827 ft | 318 kts | 225° |
| 2026-05-06 17:16 | 19.98977 | -100.87215 | 10382 ft | 314 kts | 220° |
| 2026-05-06 17:16 | 19.97297 | -100.88627 | 9935 ft | 291 kts | 218° |
| 2026-05-06 17:16 | 19.95792 | -100.89830 | 9449 ft | 255 kts | 217° |
| 2026-05-06 17:16 | 19.94435 | -100.90871 | 8962 ft | 228 kts | 217° |
| 2026-05-06 17:17 | 19.93185 | -100.91816 | 8481 ft | 215 kts | 217° |
| 2026-05-06 17:17 | 19.92018 | -100.92766 | 8011 ft | 208 kts | 221° |
| 2026-05-06 17:17 | 19.90958 | -100.93801 | 7557 ft | 206 kts | 229° |
| 2026-05-06 17:17 | 19.90154 | -100.94982 | 7498 ft | 188 kts | 236° |
| 2026-05-06 17:18 | 19.89433 | -100.96063 | 7485 ft | 176 kts | 235° |
| 2026-05-06 17:18 | 19.88729 | -100.97102 | 7490 ft | 168 kts | 234° |
| 2026-05-06 17:18 | 19.88037 | -100.98113 | 7354 ft | 172 kts | 234° |
| 2026-05-06 17:18 | 19.87327 | -100.99161 | 7082 ft | 182 kts | 235° |
| 2026-05-06 17:19 | 19.86558 | -101.00212 | 6538 ft | 175 kts | 234° |
| 2026-05-06 17:19 | 19.85870 | -101.01217 | 6080 ft | 162 kts | 237° |
| 2026-05-06 17:19 | 19.85311 | -101.02066 | 6034 ft | 89 kts | 233° |
| 2026-05-06 17:19 | 19.85014 | -101.02483 | 6035 ft | 65 kts | 227° |
| 2026-05-06 17:20 | 19.84678 | -101.02740 | 6033 ft | 56 kts | 199° |
| 2026-05-06 17:20 | 19.84555 | -101.02629 | 6034 ft | 19 kts | 150° |
| 2026-05-06 17:20 | 19.84536 | -101.02616 | 6034 ft | 0 kts | 138° |